createdAt,value
2018-09-24T00:00:59.877Z,79.70
2018-09-24T00:03:27.573Z,84.50
2018-09-24T00:05:55.901Z,86.00
2018-09-24T00:08:23.699Z,87.20
2018-09-24T00:10:51.641Z,87.00
2018-09-24T00:13:18.790Z,89.20
2018-09-24T00:15:45.761Z,89.20
2018-09-24T00:18:14.929Z,89.10
2018-09-24T00:20:42.793Z,90.00
2018-09-24T00:23:11.986Z,90.40
2018-09-24T00:25:40.293Z,90.90
2018-09-24T00:28:08.105Z,90.00
2018-09-24T00:30:36.023Z,90.20
2018-09-24T00:33:02.529Z,90.70
2018-09-24T00:35:29.051Z,90.10
2018-09-24T00:37:55.614Z,90.00
2018-09-24T00:40:22.127Z,90.10
2018-09-24T00:42:48.619Z,90.10
2018-09-24T00:45:15.209Z,88.90
2018-09-24T00:47:41.967Z,88.60
2018-09-24T00:50:08.529Z,89.50
2018-09-24T00:52:35.143Z,87.00
2018-09-24T00:55:01.837Z,89.40
2018-09-24T00:57:28.358Z,88.00
2018-09-24T00:59:54.855Z,88.30
2018-09-24T01:02:21.530Z,88.40
2018-09-24T01:04:48.016Z,90.10
2018-09-24T01:07:14.715Z,89.70
2018-09-24T01:09:41.440Z,90.50
2018-09-24T01:12:08.190Z,89.50
2018-09-24T01:14:34.832Z,88.60
2018-09-24T01:17:01.436Z,89.10
2018-09-24T01:19:28.005Z,89.50
2018-09-24T01:21:54.606Z,89.90
2018-09-24T01:24:21.228Z,89.20
2018-09-24T01:26:47.742Z,89.40
2018-09-24T01:29:14.374Z,88.10
2018-09-24T01:31:41.425Z,88.30
2018-09-24T01:34:08.130Z,87.70
2018-09-24T01:36:35.338Z,90.00
2018-09-24T01:39:03.710Z,90.00
2018-09-24T01:41:30.926Z,88.20
2018-09-24T01:43:57.408Z,87.10
2018-09-24T01:46:24.097Z,87.50
2018-09-24T01:48:50.830Z,86.00
2018-09-24T01:51:18.551Z,86.80
2018-09-24T01:53:45.803Z,85.80
2018-09-24T01:56:12.816Z,87.00
2018-09-24T01:58:40.241Z,88.00
2018-09-24T02:01:06.963Z,89.00
2018-09-24T02:03:33.504Z,90.00
2018-09-24T02:06:00.088Z,89.00
2018-09-24T02:08:26.619Z,89.30
2018-09-24T02:10:53.228Z,90.20
2018-09-24T02:13:20.231Z,91.00
2018-09-24T02:15:46.891Z,90.90
2018-09-24T02:18:13.554Z,90.10
2018-09-24T02:20:41.555Z,89.50
2018-09-24T02:23:08.742Z,89.70
2018-09-24T02:25:36.345Z,88.70
2018-09-24T02:28:04.103Z,88.50
2018-09-24T02:30:30.862Z,88.50
2018-09-24T02:32:57.541Z,87.60
2018-09-24T02:35:24.774Z,87.80
2018-09-24T02:37:53.163Z,89.10
2018-09-24T02:40:22.244Z,89.90
2018-09-24T02:42:48.932Z,89.10
2018-09-24T02:45:17.519Z,88.90
2018-09-24T02:47:44.896Z,89.00
2018-09-24T02:50:12.439Z,90.00
2018-09-24T02:52:39.074Z,90.40
2018-09-24T02:55:05.782Z,90.60
2018-09-24T02:57:33.093Z,90.80
2018-09-24T02:59:59.712Z,91.00
2018-09-24T03:02:26.998Z,91.00
2018-09-24T03:04:53.472Z,90.30
2018-09-24T03:07:20.120Z,89.00
2018-09-24T03:09:46.605Z,87.60
2018-09-24T03:12:13.757Z,88.20
2018-09-24T03:14:40.647Z,88.30
2018-09-24T03:17:08.091Z,90.10
2018-09-24T03:19:35.858Z,89.50
2018-09-24T03:22:03.240Z,90.10
2018-09-24T03:24:29.757Z,90.20
2018-09-24T03:26:56.296Z,86.20
2018-09-24T03:29:22.830Z,87.60
2018-09-24T03:31:49.421Z,86.00
2018-09-24T03:34:15.980Z,85.70
2018-09-24T03:36:42.607Z,81.50
2018-09-24T03:39:09.242Z,83.70
2018-09-24T03:41:35.739Z,86.40
2018-09-24T03:44:02.911Z,85.00
2018-09-24T03:46:29.637Z,84.60
2018-09-24T03:48:56.286Z,87.60
2018-09-24T03:51:23.109Z,87.00
2018-09-24T03:53:49.795Z,83.30
2018-09-24T03:56:16.334Z,81.80
2018-09-24T03:58:42.888Z,83.40
2018-09-24T04:01:09.510Z,84.70
2018-09-24T04:03:36.093Z,83.50
2018-09-24T04:06:03.691Z,83.00
2018-09-24T04:08:30.280Z,81.10
2018-09-24T04:10:56.989Z,82.80
2018-09-24T04:13:23.644Z,83.10
2018-09-24T04:15:50.226Z,77.50
2018-09-24T04:18:16.786Z,80.40
2018-09-24T04:20:43.518Z,84.10
2018-09-24T04:23:10.033Z,85.40
2018-09-24T04:25:36.833Z,84.00
2018-09-24T04:28:03.364Z,85.90
2018-09-24T04:30:29.917Z,81.70
2018-09-24T04:32:56.440Z,83.30
2018-09-24T04:35:23.053Z,84.50
2018-09-24T04:37:49.598Z,76.50
2018-09-24T04:40:16.152Z,77.10
2018-09-24T04:42:42.700Z,76.00
2018-09-24T04:45:09.196Z,74.00
2018-09-24T04:47:35.755Z,68.30
2018-09-24T04:50:02.388Z,70.10
2018-09-24T04:52:28.880Z,70.00
2018-09-24T04:54:55.393Z,71.50
2018-09-24T04:57:22.036Z,71.90
2018-09-24T04:59:48.554Z,66.60
2018-09-24T05:02:16.215Z,69.90
2018-09-24T05:04:42.889Z,68.10
2018-09-24T05:07:09.473Z,68.50
2018-09-24T05:09:36.075Z,65.10
2018-09-24T05:12:04.863Z,67.60
2018-09-24T05:14:32.203Z,67.10
2018-09-24T05:16:58.908Z,68.10
2018-09-24T05:19:26.000Z,69.20
2018-09-24T05:21:52.492Z,69.30
2018-09-24T05:24:19.022Z,68.70
2018-09-24T05:26:46.930Z,70.50
2018-09-24T05:29:14.464Z,69.40
2018-09-24T05:31:41.123Z,71.50
2018-09-24T05:34:07.662Z,71.00
2018-09-24T05:36:35.190Z,69.70
2018-09-24T05:39:01.874Z,66.90
2018-09-24T05:41:28.443Z,66.80
2018-09-24T05:43:54.924Z,68.60
2018-09-24T05:46:21.535Z,66.90
2018-09-24T05:48:51.845Z,64.90
2018-09-24T05:51:18.431Z,66.30
2018-09-24T05:53:44.903Z,70.20
2018-09-24T05:56:14.542Z,68.30
2018-09-24T05:58:41.561Z,67.20
2018-09-24T06:01:08.276Z,65.00
2018-09-24T06:03:34.820Z,70.10
2018-09-24T06:06:01.326Z,70.60
2018-09-24T06:08:27.861Z,68.40
2018-09-24T06:10:54.362Z,62.10
2018-09-24T06:13:20.899Z,66.00
2018-09-24T06:15:48.099Z,65.90
2018-09-24T06:18:14.678Z,65.00
2018-09-24T06:20:41.381Z,66.10
2018-09-24T06:23:07.919Z,66.70
2018-09-24T06:25:34.474Z,62.10
2018-09-24T06:28:01.031Z,64.80
2018-09-24T06:30:27.538Z,62.20
2018-09-24T06:32:54.175Z,61.10
2018-09-24T06:35:20.668Z,59.60
2018-09-24T06:37:47.224Z,57.10
2018-09-24T06:40:13.837Z,56.20
2018-09-24T06:42:40.356Z,55.00
2018-09-24T06:45:06.851Z,57.00
2018-09-24T06:47:33.425Z,57.50
2018-09-24T06:50:00.603Z,57.80
2018-09-24T06:52:27.203Z,57.50
2018-09-24T06:54:54.996Z,56.40
2018-09-24T06:57:21.540Z,53.20
2018-09-24T06:59:49.133Z,56.00
2018-09-24T07:04:47.634Z,55.80
2018-09-24T07:07:14.208Z,54.70
2018-09-24T07:09:40.750Z,57.00
2018-09-24T07:12:11.130Z,54.30
2018-09-24T07:14:37.621Z,52.40
2018-09-24T07:17:04.662Z,53.00
2018-09-24T07:19:31.203Z,53.50
2018-09-24T07:21:57.673Z,53.50
2018-09-24T07:24:24.165Z,53.30
2018-09-24T07:26:50.696Z,53.80
2018-09-24T07:29:17.155Z,54.10
2018-09-24T07:31:43.648Z,52.60
2018-09-24T07:34:11.173Z,51.00
2018-09-24T07:36:37.656Z,51.90
2018-09-24T07:39:04.243Z,50.40
2018-09-24T07:41:30.812Z,49.90
2018-09-24T07:43:57.298Z,50.40
2018-09-24T07:46:23.889Z,51.50
2018-09-24T07:48:50.448Z,50.50
2018-09-24T07:51:17.005Z,49.40
2018-09-24T07:53:43.515Z,51.40
2018-09-24T07:56:10.161Z,49.30
2018-09-24T07:58:36.708Z,49.30
2018-09-24T08:01:03.503Z,48.90
2018-09-24T08:03:30.188Z,49.90
2018-09-24T08:05:56.680Z,50.80
2018-09-24T08:08:23.268Z,49.20
2018-09-24T08:10:51.109Z,51.70
2018-09-24T08:13:17.632Z,51.10
2018-09-24T08:15:44.471Z,48.80
2018-09-24T08:18:11.083Z,48.60
2018-09-24T08:20:38.071Z,47.70
2018-09-24T08:23:04.957Z,46.90
2018-09-24T08:25:31.562Z,49.00
2018-09-24T08:27:58.243Z,49.60
2018-09-24T08:30:24.890Z,48.80
2018-09-24T08:32:51.575Z,47.20
2018-09-24T08:35:18.565Z,48.40
2018-09-24T08:37:45.312Z,46.70
2018-09-24T08:40:15.047Z,48.10
2018-09-24T08:42:41.631Z,46.60
2018-09-24T08:45:08.144Z,47.10
2018-09-24T08:47:36.199Z,46.40
2018-09-24T08:50:02.715Z,46.40
2018-09-24T08:52:29.217Z,46.70
2018-09-24T08:54:55.765Z,47.10
2018-09-24T08:57:22.341Z,46.20
2018-09-24T08:59:49.037Z,46.30
2018-09-24T09:02:15.511Z,46.50
2018-09-24T09:04:42.001Z,45.00
2018-09-24T09:07:08.543Z,47.50
2018-09-24T09:12:07.444Z,47.40
2018-09-24T09:14:34.109Z,46.90
2018-09-24T09:17:00.595Z,47.90
2018-09-24T09:19:28.175Z,47.10
2018-09-24T09:21:54.657Z,47.20
2018-09-24T09:24:21.123Z,48.10
2018-09-24T09:26:47.612Z,48.10
2018-09-24T09:29:14.225Z,48.80
2018-09-24T09:31:41.049Z,46.90
2018-09-24T09:34:07.580Z,46.20
2018-09-24T09:36:34.550Z,48.10
2018-09-24T09:39:01.129Z,48.70
2018-09-24T09:41:28.396Z,47.10
2018-09-24T09:43:54.956Z,45.80
2018-09-24T09:46:21.433Z,45.40
2018-09-24T09:48:47.981Z,46.40
2018-09-24T09:51:14.440Z,45.80
2018-09-24T09:53:40.983Z,47.30
2018-09-24T09:56:07.687Z,46.00
2018-09-24T09:58:34.146Z,46.50
2018-09-24T10:01:00.584Z,46.70
2018-09-24T10:05:59.000Z,45.50
2018-09-24T10:08:25.637Z,45.50
2018-09-24T10:10:52.138Z,47.10
2018-09-24T10:13:18.765Z,48.30
2018-09-24T10:15:45.241Z,45.00
2018-09-24T10:18:11.805Z,47.10
2018-09-24T10:20:38.346Z,48.20
2018-09-24T10:23:04.917Z,45.80
2018-09-24T10:25:31.449Z,45.90
2018-09-24T10:27:58.001Z,45.40
2018-09-24T10:30:24.490Z,44.50
2018-09-24T10:32:50.981Z,45.30
2018-09-24T10:35:17.488Z,44.40
2018-09-24T10:37:44.041Z,45.00
2018-09-24T10:40:10.610Z,44.60
2018-09-24T10:42:38.118Z,44.00
2018-09-24T10:45:04.700Z,43.70
2018-09-24T10:47:31.222Z,43.50
2018-09-24T10:49:57.712Z,43.20
2018-09-24T10:52:24.234Z,44.20
2018-09-24T10:54:50.793Z,42.80
2018-09-24T10:57:17.283Z,44.70
2018-09-24T10:59:43.841Z,43.90
2018-09-24T11:02:10.357Z,42.40
2018-09-24T11:04:36.969Z,41.20
2018-09-24T11:07:03.823Z,42.10
2018-09-24T11:09:30.361Z,42.60
2018-09-24T11:11:56.862Z,42.00
2018-09-24T11:14:23.407Z,41.30
2018-09-24T11:16:50.113Z,40.50
2018-09-24T11:19:16.899Z,41.80
2018-09-24T11:21:43.403Z,39.40
2018-09-24T11:24:09.919Z,39.80
2018-09-24T11:26:36.481Z,41.10
2018-09-24T11:29:03.151Z,39.20
2018-09-24T11:31:29.706Z,39.60
2018-09-24T11:33:56.281Z,39.10
2018-09-24T11:36:22.741Z,38.50
2018-09-24T11:38:49.215Z,38.70
2018-09-24T11:41:15.709Z,37.30
2018-09-24T11:43:42.234Z,40.70
2018-09-24T11:46:09.062Z,40.50
2018-09-24T11:53:38.898Z,40.20
2018-09-24T11:56:05.420Z,37.70
2018-09-24T11:58:31.965Z,38.90
2018-09-24T12:00:58.459Z,41.30
2018-09-24T12:03:24.927Z,38.60
2018-09-24T12:05:51.407Z,39.00
2018-09-24T12:08:17.955Z,40.10
2018-09-24T12:10:45.038Z,39.90
2018-09-24T12:13:11.783Z,38.60
2018-09-24T12:15:38.271Z,40.90
2018-09-24T12:18:04.793Z,40.70
2018-09-24T12:20:31.483Z,38.00
2018-09-24T12:22:57.995Z,37.20
2018-09-24T12:25:24.522Z,37.40
2018-09-24T12:27:50.997Z,37.70
2018-09-24T12:30:18.514Z,39.00
2018-09-24T12:32:45.019Z,38.70
2018-09-24T12:35:11.544Z,38.30
2018-09-24T12:37:38.056Z,38.20
2018-09-24T12:40:04.668Z,38.60
2018-09-24T12:42:31.613Z,40.10
2018-09-24T12:44:58.082Z,39.50
2018-09-24T12:47:24.776Z,41.20
2018-09-24T12:49:51.367Z,38.70
2018-09-24T12:52:17.853Z,39.40
2018-09-24T12:54:45.038Z,40.70
2018-09-24T12:57:11.505Z,41.40
2018-09-24T12:59:38.025Z,38.60
2018-09-24T13:02:04.495Z,38.80
2018-09-24T13:04:30.956Z,39.50
2018-09-24T13:06:57.494Z,39.00
2018-09-24T13:09:24.002Z,40.30
2018-09-24T13:11:50.512Z,39.00
2018-09-24T13:14:17.122Z,38.20
2018-09-24T13:16:43.569Z,38.00
2018-09-24T13:19:10.583Z,38.80
2018-09-24T13:21:37.146Z,38.60
2018-09-24T13:24:04.398Z,36.10
2018-09-24T13:26:30.886Z,37.40
2018-09-24T13:28:57.356Z,37.80
2018-09-24T13:31:23.833Z,37.20
2018-09-24T13:33:50.314Z,37.30
2018-09-24T13:36:16.871Z,38.80
2018-09-24T13:38:43.491Z,37.80
2018-09-24T13:41:10.054Z,37.90
2018-09-24T13:43:36.585Z,37.40
2018-09-24T13:46:03.229Z,38.20
2018-09-24T13:48:29.729Z,35.80
2018-09-24T13:50:56.260Z,35.70
2018-09-24T13:53:22.753Z,37.90
2018-09-24T13:55:49.924Z,37.00
2018-09-24T13:58:16.446Z,36.80
2018-09-24T14:00:42.955Z,38.60
2018-09-24T14:03:09.551Z,36.70
2018-09-24T14:05:36.058Z,37.90
2018-09-24T14:08:02.571Z,37.90
2018-09-24T14:10:29.056Z,38.50
2018-09-24T14:12:55.597Z,37.60
2018-09-24T14:15:22.200Z,36.20
2018-09-24T14:17:48.668Z,37.30
2018-09-24T14:22:47.365Z,35.20
2018-09-24T14:25:13.848Z,34.90
2018-09-24T14:27:40.361Z,36.10
2018-09-24T14:30:06.899Z,35.60
2018-09-24T14:32:33.413Z,35.40
2018-09-24T14:34:59.977Z,36.10
2018-09-24T14:37:26.532Z,35.30
2018-09-24T14:39:53.065Z,37.00
2018-09-24T14:42:20.441Z,36.60
2018-09-24T14:44:50.766Z,36.70
2018-09-24T14:47:17.317Z,36.10
2018-09-24T14:49:43.875Z,35.90
2018-09-24T14:54:42.537Z,36.00
2018-09-24T14:57:09.203Z,36.50
2018-09-24T14:59:36.493Z,35.60
2018-09-24T15:04:34.558Z,36.40
2018-09-24T15:07:01.493Z,39.10
2018-09-24T15:09:28.015Z,35.90
2018-09-24T15:11:56.833Z,35.30
2018-09-24T15:14:23.327Z,36.20
2018-09-24T15:16:49.807Z,36.00
2018-09-24T15:19:16.339Z,35.20
2018-09-24T15:21:42.880Z,36.90
2018-09-24T15:24:09.390Z,37.10
2018-09-24T15:26:35.871Z,36.00
2018-09-24T15:29:02.438Z,35.80
2018-09-24T15:31:28.945Z,36.70
2018-09-24T15:33:55.929Z,38.70
2018-09-24T15:36:22.476Z,39.90
2018-09-24T15:38:49.139Z,40.20
2018-09-24T15:41:16.155Z,37.80
2018-09-24T15:43:42.653Z,37.70
2018-09-24T15:46:09.392Z,37.60
2018-09-24T15:48:36.074Z,38.90
2018-09-24T15:51:02.767Z,37.70
2018-09-24T15:53:29.251Z,38.60
2018-09-24T15:55:56.065Z,40.80
2018-09-24T15:58:22.597Z,41.90
2018-09-24T16:00:49.112Z,41.90
2018-09-24T16:03:15.710Z,40.70
2018-09-24T16:05:42.295Z,40.70
2018-09-24T16:08:08.840Z,38.90
2018-09-24T16:10:35.390Z,40.40
2018-09-24T16:13:01.861Z,39.40
2018-09-24T16:15:28.373Z,40.70
2018-09-24T16:17:55.000Z,41.20
2018-09-24T16:20:21.482Z,41.50
2018-09-24T16:22:48.292Z,40.80
2018-09-24T16:25:15.890Z,43.80
2018-09-24T16:27:42.396Z,42.20
2018-09-24T16:30:08.890Z,42.40
2018-09-24T16:32:35.420Z,43.30
2018-09-24T16:35:02.116Z,43.60
2018-09-24T16:37:28.626Z,44.00
2018-09-24T16:39:55.342Z,46.40
2018-09-24T16:42:22.342Z,45.00
2018-09-24T16:44:48.801Z,44.20
2018-09-24T16:47:16.084Z,44.60
2018-09-24T16:49:42.604Z,45.50
2018-09-24T16:52:09.347Z,45.60
2018-09-24T16:54:35.857Z,47.10
2018-09-24T16:57:02.914Z,45.80
2018-09-24T16:59:30.078Z,46.00
2018-09-24T17:01:56.580Z,45.90
2018-09-24T17:04:23.109Z,47.70
2018-09-24T17:06:50.269Z,47.90
2018-09-24T17:09:17.924Z,47.00
2018-09-24T17:11:44.390Z,47.60
2018-09-24T17:14:11.027Z,48.80
2018-09-24T17:16:37.555Z,48.20
2018-09-24T17:19:04.045Z,48.50
2018-09-24T17:21:30.504Z,46.40
2018-09-24T17:23:57.087Z,47.00
2018-09-24T17:26:23.557Z,45.80
2018-09-24T17:28:50.213Z,47.90
2018-09-24T17:31:18.255Z,46.20
2018-09-24T17:33:44.753Z,47.30
2018-09-24T17:36:11.330Z,46.60
2018-09-24T17:38:39.010Z,45.30
2018-09-24T17:41:05.521Z,45.80
2018-09-24T17:43:32.034Z,46.00
2018-09-24T17:45:58.589Z,42.90
2018-09-24T17:48:25.294Z,42.80
2018-09-24T17:50:51.798Z,44.70
2018-09-24T17:53:18.736Z,44.20
2018-09-24T17:55:45.590Z,43.80
2018-09-24T17:58:12.141Z,43.00
2018-09-24T18:00:38.677Z,43.10
2018-09-24T18:03:05.323Z,44.40
2018-09-24T18:05:31.877Z,44.80
2018-09-24T18:07:58.397Z,45.30
2018-09-24T18:10:24.879Z,45.00
2018-09-24T18:12:51.495Z,45.10
2018-09-24T18:15:18.953Z,45.50
2018-09-24T18:17:45.505Z,46.40
2018-09-24T18:20:12.160Z,47.60
2018-09-24T18:22:38.661Z,48.20
2018-09-24T18:25:05.173Z,46.80
2018-09-24T18:27:31.695Z,48.90
2018-09-24T18:29:58.584Z,49.30
2018-09-24T18:32:25.117Z,48.50
2018-09-24T18:34:51.620Z,47.50
2018-09-24T18:37:19.335Z,49.30
2018-09-24T18:39:45.992Z,49.30
2018-09-24T18:42:12.689Z,49.70
2018-09-24T18:44:39.397Z,49.50
2018-09-24T18:47:05.968Z,49.10
2018-09-24T18:49:32.521Z,48.70
2018-09-24T18:51:59.070Z,50.80
2018-09-24T18:54:25.869Z,49.70
2018-09-24T18:56:52.381Z,49.40
2018-09-24T18:59:20.032Z,48.60
2018-09-24T19:01:46.747Z,50.60
2018-09-24T19:04:13.575Z,49.60
2018-09-24T19:06:40.495Z,50.80
2018-09-24T19:09:07.953Z,50.20
2018-09-24T19:11:36.243Z,50.60
2018-09-24T19:14:04.734Z,50.90
2018-09-24T19:16:33.561Z,50.10
2018-09-24T19:19:01.271Z,48.70
2018-09-24T19:21:28.299Z,47.30
2018-09-24T19:23:56.287Z,49.30
2018-09-24T19:26:23.112Z,49.30
2018-09-24T19:31:22.766Z,50.90
2018-09-24T19:33:49.928Z,50.40
2018-09-24T19:36:17.296Z,51.30
2018-09-24T19:38:44.763Z,52.10
2018-09-24T19:41:11.508Z,53.00
2018-09-24T19:43:43.132Z,50.80
2018-09-24T19:46:10.139Z,51.10
2018-09-24T19:48:37.424Z,51.70
2018-09-24T19:51:04.775Z,52.60
2018-09-24T19:53:34.160Z,51.30
2018-09-24T19:56:02.859Z,50.70
2018-09-24T20:01:03.003Z,51.80
2018-09-24T20:03:31.535Z,51.20
2018-09-24T20:05:58.274Z,51.20
2018-09-24T20:08:28.475Z,51.10
2018-09-24T20:10:59.178Z,51.20
2018-09-24T20:21:02.367Z,51.10
2018-09-24T20:23:30.188Z,50.60
2018-09-24T20:26:01.856Z,52.80
2018-09-24T20:31:05.043Z,52.40
2018-09-24T20:33:32.945Z,51.00
2018-09-24T20:36:02.395Z,49.80
2018-09-24T20:38:30.325Z,50.20
2018-09-24T20:41:02.229Z,51.00
2018-09-24T20:43:31.091Z,52.40
2018-09-24T20:45:58.084Z,52.80
2018-09-24T20:48:25.315Z,53.20
2018-09-24T20:50:53.898Z,53.30
2018-09-24T20:53:23.066Z,52.30
2018-09-24T20:55:50.815Z,52.00
2018-09-24T20:58:18.275Z,51.40
2018-09-24T21:00:47.997Z,53.00
2018-09-24T21:03:14.963Z,53.20
2018-09-24T21:05:41.731Z,53.00
2018-09-24T21:08:08.940Z,52.80
2018-09-24T21:10:35.997Z,53.20
2018-09-24T21:13:03.532Z,53.20
2018-09-24T21:15:30.671Z,53.70
2018-09-24T21:17:57.841Z,53.20
2018-09-24T21:20:24.960Z,54.80
2018-09-24T21:22:52.903Z,54.70
2018-09-24T21:25:20.125Z,54.90
2018-09-24T21:27:46.740Z,53.60
2018-09-24T21:30:13.970Z,54.30
2018-09-24T21:32:41.865Z,54.70
2018-09-24T21:35:08.910Z,55.20
2018-09-24T21:37:35.791Z,55.80
2018-09-24T21:40:03.384Z,56.00
2018-09-24T21:42:30.024Z,56.70
2018-09-24T21:44:57.318Z,56.70
2018-09-24T21:47:25.130Z,56.50
2018-09-24T21:49:51.885Z,57.30
2018-09-24T21:52:21.360Z,58.10
2018-09-24T21:54:48.743Z,57.60
2018-09-24T21:57:17.480Z,58.90
2018-09-24T21:59:44.817Z,58.90
2018-09-24T22:02:12.162Z,58.10
2018-09-24T22:04:38.791Z,57.70
2018-09-24T22:07:05.564Z,58.60
2018-09-24T22:09:32.564Z,58.20
2018-09-24T22:12:00.270Z,58.20
2018-09-24T22:14:31.913Z,59.70
2018-09-24T22:16:59.011Z,58.90
2018-09-24T22:19:25.861Z,58.80
2018-09-24T22:21:53.604Z,58.10
2018-09-24T22:24:20.318Z,59.30
2018-09-24T22:26:47.126Z,59.20
2018-09-24T22:29:13.841Z,59.60
2018-09-24T22:31:41.139Z,60.10
2018-09-24T22:34:10.409Z,59.30
2018-09-24T22:36:37.507Z,59.20
2018-09-24T22:39:04.940Z,59.30
2018-09-24T22:41:32.304Z,59.50
2018-09-24T22:46:31.675Z,60.30
2018-09-24T22:48:58.554Z,59.10
2018-09-24T22:51:32.320Z,58.10
2018-09-24T22:53:59.231Z,59.40
2018-09-24T22:56:27.007Z,59.80
2018-09-24T22:58:55.347Z,60.00
2018-09-24T23:01:22.123Z,62.00
2018-09-24T23:03:48.903Z,62.00
2018-09-24T23:06:16.351Z,61.50
2018-09-24T23:08:44.159Z,62.20
2018-09-24T23:11:10.874Z,63.70
2018-09-24T23:13:38.161Z,62.30
2018-09-24T23:16:05.681Z,63.00
2018-09-24T23:18:32.613Z,64.80
2018-09-24T23:20:59.417Z,64.50
2018-09-24T23:23:26.461Z,65.40
2018-09-24T23:25:52.921Z,64.40
2018-09-24T23:28:19.714Z,64.00
2018-09-24T23:30:46.664Z,63.30
2018-09-24T23:33:13.302Z,63.10
2018-09-24T23:35:39.879Z,63.40
2018-09-24T23:38:07.308Z,64.00
2018-09-24T23:40:34.860Z,63.10
2018-09-24T23:43:02.165Z,63.90
2018-09-24T23:45:29.035Z,63.30
2018-09-24T23:47:55.856Z,62.40
2018-09-24T23:50:22.583Z,63.90
2018-09-24T23:52:49.323Z,63.90
2018-09-24T23:55:16.021Z,64.40
2018-09-24T23:57:43.339Z,64.90
